Time;durP1;ratioP1;P1;durP2;ratioP2;P2;SDS_P1;SDS_P2;PMS_P1;PMS_P2;Temp;Humidity;BMP_temperature;BMP_pressure;BME280_temperature;BME280_humidity;BME280_pressure;Samples;Min_cycle;Max_cycle;Signal;HPM_P1;HPM_P2
2020/12/30 00:02:15;;;;;;;3.70;3.03;;;4.10;99.90;;;;;;5057266;28;20257;-79
2020/12/30 00:04:43;;;;;;;3.30;3.00;;;4.10;99.90;;;;;;5055432;28;20192;-78
2020/12/30 00:07:09;;;;;;;90.65;48.00;;;4.10;99.90;;;;;;5056180;28;20176;-80
2020/12/30 00:09:34;;;;;;;5.80;3.87;;;4.20;99.90;;;;;;5042203;28;20234;-77
2020/12/30 00:12:00;;;;;;;5.10;3.30;;;4.10;99.90;;;;;;5055556;28;20172;-78
2020/12/30 00:14:26;;;;;;;6.03;3.03;;;4.10;99.90;;;;;;5054892;28;20189;-78
2020/12/30 00:16:51;;;;;;;3.80;2.90;;;4.00;99.90;;;;;;5054817;28;20169;-79
2020/12/30 00:19:17;;;;;;;3.40;3.10;;;4.00;99.90;;;;;;5055338;28;20172;-78
2020/12/30 00:21:43;;;;;;;5.87;3.50;;;4.00;99.90;;;;;;5055812;28;20199;-78
2020/12/30 00:24:08;;;;;;;3.97;3.03;;;4.00;99.90;;;;;;5058131;28;20189;-78
2020/12/30 00:26:34;;;;;;;7.77;3.63;;;4.10;99.90;;;;;;5056029;28;20635;-79
2020/12/30 00:28:59;;;;;;;7.43;3.30;;;4.00;99.90;;;;;;5056004;28;20667;-78
2020/12/30 00:31:30;;;;;;;8.40;4.10;;;4.00;99.90;;;;;;5053190;28;20247;-77
2020/12/30 00:33:55;;;;;;;3.53;2.95;;;3.90;99.90;;;;;;5053416;28;20209;-78
2020/12/30 00:36:23;;;;;;;5.37;3.73;;;3.90;99.90;;;;;;5055231;28;20200;-77
2020/12/30 00:38:49;;;;;;;6.65;3.45;;;3.90;99.90;;;;;;5054664;28;20275;-78
2020/12/30 00:41:15;;;;;;;3.77;3.13;;;3.90;99.90;;;;;;5054311;28;20297;-78
2020/12/30 00:43:41;;;;;;;3.60;3.10;;;3.90;99.90;;;;;;5054230;28;20196;-77
2020/12/30 00:46:17;;;;;;;4.15;3.47;;;3.90;99.90;;;;;;5053590;28;20426;-78
2020/12/30 00:48:44;;;;;;;6.40;3.85;;;3.90;99.90;;;;;;5055407;28;20215;-76
2020/12/30 00:51:16;;;;;;;3.30;3.00;;;3.90;99.90;;;;;;5053999;28;20176;-76
2020/12/30 00:53:43;;;;;;;4.13;2.63;;;3.80;99.90;;;;;;5054427;28;20172;-78
2020/12/30 00:56:09;;;;;;;5.00;3.15;;;3.90;99.90;;;;;;5054074;28;20177;-76
2020/12/30 00:58:35;;;;;;;2.83;2.58;;;3.90;99.90;;;;;;5054318;28;20192;-77
2020/12/30 01:01:03;;;;;;;3.80;3.25;;;4.00;99.90;;;;;;5054146;28;20176;-77
2020/12/30 01:03:29;;;;;;;4.03;2.95;;;3.80;99.90;;;;;;5054621;28;20180;-77
2020/12/30 01:05:56;;;;;;;4.07;3.27;;;3.80;99.90;;;;;;5052046;28;20173;-76
2020/12/30 01:08:22;;;;;;;4.50;3.20;;;3.80;99.90;;;;;;5056274;28;20285;-76
2020/12/30 01:10:47;;;;;;;4.40;3.00;;;3.80;99.90;;;;;;5054746;28;20188;-77
2020/12/30 01:13:13;;;;;;;5.37;3.07;;;3.80;99.90;;;;;;5036655;28;20503;-77
2020/12/30 01:15:39;;;;;;;5.00;3.17;;;3.80;99.90;;;;;;5052757;28;20188;-77
2020/12/30 01:18:04;;;;;;;2.97;2.67;;;3.80;99.90;;;;;;5054148;28;20247;-76
2020/12/30 01:20:30;;;;;;;5.20;3.37;;;3.80;99.90;;;;;;5052916;28;20168;-77
2020/12/30 01:22:56;;;;;;;6.95;3.30;;;3.70;99.90;;;;;;5052797;28;20176;-77
2020/12/30 01:25:22;;;;;;;3.63;3.13;;;3.70;99.90;;;;;;5055187;28;20197;-76
2020/12/30 01:27:47;;;;;;;3.57;3.23;;;3.70;99.90;;;;;;5054726;28;20216;-78
2020/12/30 01:30:13;;;;;;;3.87;2.60;;;3.70;99.90;;;;;;5054297;28;20161;-77
2020/12/30 01:32:39;;;;;;;6.33;3.40;;;3.70;99.90;;;;;;5054261;28;20181;-78
2020/12/30 01:35:04;;;;;;;4.63;3.40;;;3.70;99.90;;;;;;5052619;28;20267;-77
2020/12/30 01:37:30;;;;;;;5.20;3.90;;;3.70;99.90;;;;;;5053861;28;20193;-77
2020/12/30 01:39:55;;;;;;;6.23;3.57;;;3.70;99.90;;;;;;5052036;28;20177;-77
2020/12/30 01:42:21;;;;;;;7.50;3.93;;;3.70;99.90;;;;;;5052469;28;20207;-76
2020/12/30 01:44:47;;;;;;;3.43;2.63;;;3.70;99.90;;;;;;5054824;28;20195;-76
2020/12/30 01:47:13;;;;;;;6.60;3.50;;;3.70;99.90;;;;;;5052714;28;20611;-77
2020/12/30 01:49:39;;;;;;;7.45;3.35;;;3.80;99.90;;;;;;5054135;28;20306;-77
2020/12/30 01:52:05;;;;;;;4.53;3.07;;;3.80;99.90;;;;;;5055082;28;20632;-77
2020/12/30 01:54:34;;;;;;;4.63;3.58;;;3.80;99.90;;;;;;5052718;28;20198;-78
2020/12/30 01:57:02;;;;;;;4.47;3.60;;;3.80;99.90;;;;;;5054134;28;20169;-77
2020/12/30 01:59:28;;;;;;;3.30;3.00;;;3.70;99.90;;;;;;5054980;28;20180;-78
2020/12/30 02:02:00;;;;;;;4.03;3.63;;;3.70;99.90;;;;;;5054812;28;20536;-77
2020/12/30 02:04:56;;;;;;;5.35;3.95;;;3.70;99.90;;;;;;5055286;28;20196;-77
2020/12/30 02:07:25;;;;;;;2.63;2.38;;;3.70;99.90;;;;;;5074858;28;20240;-77
2020/12/30 02:09:51;;;;;;;4.88;2.90;;;3.70;99.90;;;;;;5055665;28;20205;-77
2020/12/30 02:12:17;;;;;;;3.75;3.35;;;3.80;99.90;;;;;;5051997;28;20776;-76
2020/12/30 02:14:43;;;;;;;4.25;3.00;;;3.80;99.90;;;;;;5051063;28;20195;-78
2020/12/30 02:17:16;;;;;;;2.90;2.63;;;3.80;99.90;;;;;;5052483;28;20161;-77
2020/12/30 02:19:42;;;;;;;4.60;3.55;;;3.80;99.90;;;;;;5052193;28;20524;-77
2020/12/30 02:22:09;;;;;;;4.03;3.33;;;3.80;99.90;;;;;;5051994;28;20223;-77
2020/12/30 02:24:36;;;;;;;5.25;3.17;;;3.80;99.90;;;;;;5051946;28;20226;-77
2020/12/30 02:27:04;;;;;;;3.10;2.78;;;3.80;99.90;;;;;;5053301;28;20195;-78
2020/12/30 02:29:31;;;;;;;4.03;2.55;;;3.90;99.90;;;;;;5056374;28;20254;-79
2020/12/30 02:31:57;;;;;;;3.50;3.17;;;3.90;99.90;;;;;;5056164;28;20165;-77
2020/12/30 02:34:23;;;;;;;8.50;3.92;;;3.90;99.90;;;;;;5055780;28;20199;-77
2020/12/30 02:36:49;;;;;;;6.17;3.07;;;3.90;99.90;;;;;;5054688;28;20169;-77
2020/12/30 02:39:15;;;;;;;5.65;2.95;;;4.00;99.90;;;;;;5054329;28;20238;-77
2020/12/30 02:41:41;;;;;;;4.85;3.35;;;4.00;99.90;;;;;;5054634;28;20181;-77
2020/12/30 02:44:07;;;;;;;4.90;3.13;;;4.00;99.90;;;;;;5055536;28;20227;-76
2020/12/30 02:46:33;;;;;;;10.30;2.97;;;3.90;99.90;;;;;;5055807;28;20517;-77
2020/12/30 02:48:59;;;;;;;5.40;2.78;;;3.90;99.90;;;;;;5055367;28;20518;-77
2020/12/30 02:51:25;;;;;;;4.70;3.77;;;4.00;99.90;;;;;;5054041;28;20211;-77
2020/12/30 02:53:51;;;;;;;4.20;3.40;;;3.90;99.90;;;;;;5055726;28;20235;-77
2020/12/30 02:56:18;;;;;;;8.82;3.53;;;3.90;99.90;;;;;;5055821;28;20191;-77
2020/12/30 02:58:44;;;;;;;3.58;3.28;;;3.90;99.90;;;;;;5055888;28;20173;-77
2020/12/30 03:01:11;;;;;;;4.93;3.58;;;3.80;99.90;;;;;;5053903;28;20196;-77
2020/12/30 03:03:37;;;;;;;3.25;2.75;;;3.90;99.90;;;;;;5055043;28;20794;-77
2020/12/30 03:06:03;;;;;;;4.22;2.78;;;3.90;99.90;;;;;;5055266;28;20196;-78
2020/12/30 03:08:29;;;;;;;4.30;3.13;;;3.80;99.90;;;;;;5054988;28;20714;-78
2020/12/30 03:10:55;;;;;;;3.10;2.50;;;3.80;99.90;;;;;;5053129;28;20554;-77
2020/12/30 03:13:21;;;;;;;4.68;3.35;;;3.90;99.90;;;;;;5054707;28;20844;-79
2020/12/30 03:15:46;;;;;;;6.50;3.07;;;3.90;99.90;;;;;;5054416;28;20234;-78
2020/12/30 03:18:12;;;;;;;4.93;3.03;;;3.90;99.90;;;;;;5053304;28;20611;-78
2020/12/30 03:20:37;;;;;;;3.63;2.97;;;3.90;99.90;;;;;;5054306;28;20188;-78
2020/12/30 03:23:03;;;;;;;6.03;3.30;;;3.90;99.90;;;;;;5053103;28;20177;-77
2020/12/30 03:25:29;;;;;;;4.00;2.60;;;3.90;99.90;;;;;;5054381;28;20184;-76
2020/12/30 03:27:56;;;;;;;3.53;2.20;;;3.90;99.90;;;;;;5054386;28;20199;-77
2020/12/30 03:30:23;;;;;;;2.50;1.88;;;3.90;99.90;;;;;;5053290;28;20602;-77
2020/12/30 03:32:48;;;;;;;3.53;2.40;;;3.90;99.90;;;;;;5054102;28;20180;-77
2020/12/30 03:35:14;;;;;;;3.40;2.70;;;3.90;99.90;;;;;;5054277;28;20630;-77
2020/12/30 03:37:39;;;;;;;3.20;2.20;;;3.90;99.90;;;;;;5053976;28;20242;-77
2020/12/30 03:40:05;;;;;;;3.57;2.03;;;3.80;99.90;;;;;;5052603;28;20517;-77
2020/12/30 03:42:31;;;;;;;3.80;2.83;;;3.80;99.90;;;;;;5054146;28;20249;-78
2020/12/30 03:44:57;;;;;;;6.82;2.58;;;3.90;99.90;;;;;;5054526;28;20625;-77
2020/12/30 03:47:23;;;;;;;4.30;2.10;;;3.90;99.90;;;;;;5053166;28;20204;-77
2020/12/30 03:49:49;;;;;;;4.25;2.88;;;4.00;99.90;;;;;;5036942;28;20527;-77
2020/12/30 03:52:16;;;;;;;3.03;2.70;;;4.00;99.90;;;;;;5053537;28;20700;-78
2020/12/30 03:54:42;;;;;;;3.63;2.67;;;4.00;99.90;;;;;;5052519;28;20219;-78
2020/12/30 03:57:08;;;;;;;2.60;1.83;;;4.00;99.90;;;;;;5053828;28;20176;-78
2020/12/30 03:59:33;;;;;;;2.00;1.70;;;4.00;99.90;;;;;;5052448;28;20252;-77
2020/12/30 04:01:59;;;;;;;3.00;2.70;;;4.00;99.90;;;;;;5053681;28;20648;-77
2020/12/30 04:04:25;;;;;;;3.70;2.67;;;4.00;99.90;;;;;;5053649;28;20191;-77
2020/12/30 04:06:50;;;;;;;2.57;1.80;;;4.00;99.90;;;;;;5053834;28;20609;-78
2020/12/30 04:09:16;;;;;;;2.93;2.40;;;3.90;99.90;;;;;;5052439;28;20284;-78
2020/12/30 04:11:42;;;;;;;2.83;2.27;;;4.00;99.90;;;;;;5053543;28;20213;-77
2020/12/30 04:14:07;;;;;;;8.10;2.47;;;4.00;99.90;;;;;;5053372;28;20663;-77
2020/12/30 04:16:33;;;;;;;4.27;2.70;;;4.00;99.90;;;;;;5052313;28;20223;-77
2020/12/30 04:18:59;;;;;;;2.03;1.87;;;4.00;99.90;;;;;;5052078;28;20195;-77
2020/12/30 04:21:25;;;;;;;2.63;1.50;;;3.90;99.90;;;;;;5053241;28;20464;-78
2020/12/30 04:23:52;;;;;;;2.05;1.83;;;3.90;99.90;;;;;;5052153;28;20219;-78
2020/12/30 04:26:19;;;;;;;4.03;1.77;;;3.90;99.90;;;;;;5054035;28;20540;-77
2020/12/30 04:28:45;;;;;;;3.08;2.78;;;3.90;99.90;;;;;;5053544;28;20197;-77
2020/12/30 04:31:15;;;;;;;7.40;2.40;;;3.90;99.90;;;;;;5054207;28;20194;-77
2020/12/30 04:33:41;;;;;;;5.05;2.30;;;3.90;99.90;;;;;;5062168;28;20236;-77
2020/12/30 04:36:07;;;;;;;3.92;2.05;;;3.90;99.90;;;;;;5076721;28;20790;-77
2020/12/30 04:38:34;;;;;;;3.60;2.40;;;3.90;99.90;;;;;;5076585;28;20177;-76
2020/12/30 04:41:06;;;;;;;3.45;2.60;;;3.90;99.90;;;;;;5075950;28;20157;-78
2020/12/30 04:43:34;;;;;;;2.42;1.83;;;3.90;99.90;;;;;;5065087;28;20173;-77
2020/12/30 04:46:01;;;;;;;2.95;2.47;;;3.90;99.90;;;;;;5052834;28;20631;-77
2020/12/30 04:48:27;;;;;;;4.05;2.88;;;3.90;99.90;;;;;;5054320;28;20204;-77
2020/12/30 04:50:53;;;;;;;3.47;2.45;;;3.90;99.90;;;;;;5051844;28;20173;-78
2020/12/30 04:53:23;;;;;;;2.60;2.40;;;3.90;99.90;;;;;;5053323;28;20268;-77
2020/12/30 04:55:50;;;;;;;2.13;1.58;;;3.90;99.90;;;;;;5053371;28;20180;-78
2020/12/30 04:58:19;;;;;;;3.83;2.67;;;3.90;99.90;;;;;;5053723;28;20196;-78
2020/12/30 05:00:46;;;;;;;3.35;2.30;;;3.80;99.90;;;;;;5053841;28;20252;-78
2020/12/30 05:03:13;;;;;;;4.30;2.67;;;3.80;99.90;;;;;;5053481;28;20173;-78
2020/12/30 05:05:41;;;;;;;2.85;2.10;;;3.80;99.90;;;;;;5053590;28;20193;-77
2020/12/30 05:08:14;;;;;;;3.40;2.35;;;3.80;99.90;;;;;;5052014;28;20200;-78
2020/12/30 05:10:41;;;;;;;2.67;2.15;;;3.80;99.90;;;;;;5054133;28;20175;-77
2020/12/30 05:13:08;;;;;;;2.80;2.13;;;3.70;99.90;;;;;;5053716;28;20252;-77
2020/12/30 05:15:34;;;;;;;2.20;1.75;;;3.70;99.90;;;;;;5053315;28;20244;-77
2020/12/30 05:18:07;;;;;;;4.05;2.53;;;3.70;99.90;;;;;;5054177;28;20176;-77
2020/12/30 05:20:36;;;;;;;5.50;2.65;;;3.70;99.90;;;;;;5052901;28;20709;-78
2020/12/30 05:23:04;;;;;;;2.15;1.77;;;3.70;99.90;;;;;;5052641;28;20254;-77
2020/12/30 05:25:32;;;;;;;2.55;2.00;;;3.70;99.90;;;;;;5052570;28;20189;-76
2020/12/30 05:27:58;;;;;;;2.95;2.58;;;3.70;99.90;;;;;;5052611;28;20636;-78
2020/12/30 05:30:24;;;;;;;6.10;2.40;;;3.70;99.90;;;;;;5051158;28;20187;-76
2020/12/30 05:32:53;;;;;;;3.20;1.60;;;3.70;99.90;;;;;;5052614;28;20225;-77
2020/12/30 05:35:22;;;;;;;3.72;2.35;;;3.70;99.90;;;;;;5052695;28;20196;-77
2020/12/30 05:37:48;;;;;;;2.88;2.20;;;3.70;99.90;;;;;;5051755;28;20259;-77
2020/12/30 05:40:25;;;;;;;9.35;2.83;;;3.70;99.90;;;;;;5052659;28;20160;-77
2020/12/30 05:43:07;;;;;;;2.47;2.05;;;3.70;99.90;;;;;;5052467;28;20207;-78
2020/12/30 05:45:47;;;;;;;2.90;2.22;;;3.70;99.90;;;;;;5052664;28;20189;-78
2020/12/30 05:48:13;;;;;;;2.30;1.90;;;3.60;99.90;;;;;;5052457;28;20612;-78
2020/12/30 05:50:54;;;;;;;3.42;1.95;;;3.60;99.90;;;;;;5052367;28;20244;-76
2020/12/30 05:53:21;;;;;;;3.40;2.80;;;3.70;99.90;;;;;;5052809;28;20168;-77
2020/12/30 05:55:50;;;;;;;6.95;3.33;;;3.60;99.90;;;;;;5052169;28;20264;-77
2020/12/30 05:58:17;;;;;;;2.55;2.30;;;3.60;99.90;;;;;;5052378;28;20168;-78
2020/12/30 06:00:44;;;;;;;6.75;2.47;;;3.50;99.90;;;;;;5034851;28;20180;-76
2020/12/30 06:03:14;;;;;;;4.15;2.85;;;3.50;99.90;;;;;;5057276;28;20219;-77
2020/12/30 06:05:41;;;;;;;2.75;2.40;;;3.50;99.90;;;;;;5075277;28;20180;-77
2020/12/30 06:08:06;;;;;;;3.60;2.33;;;3.50;99.90;;;;;;5054855;28;20196;-77
2020/12/30 06:10:32;;;;;;;3.47;2.37;;;3.60;99.90;;;;;;5034510;28;20556;-77
2020/12/30 06:13:02;;;;;;;3.70;2.13;;;3.50;99.90;;;;;;5052082;28;20175;-76
2020/12/30 06:15:32;;;;;;;4.47;2.58;;;3.50;99.90;;;;;;5034211;28;20518;-77
2020/12/30 06:18:05;;;;;;;5.22;2.63;;;3.50;99.90;;;;;;5052035;28;20180;-78
2020/12/30 06:20:32;;;;;;;5.03;2.53;;;3.50;99.90;;;;;;5051656;28;20543;-78
2020/12/30 06:23:11;;;;;;;4.13;2.83;;;3.50;99.90;;;;;;5051484;28;20196;-77
2020/12/30 06:25:39;;;;;;;2.67;2.38;;;3.50;99.90;;;;;;5050895;28;20215;-77
2020/12/30 06:28:17;;;;;;;6.47;3.50;;;3.50;99.90;;;;;;5050418;28;20200;-77
2020/12/30 06:30:43;;;;;;;2.80;2.20;;;3.50;99.90;;;;;;5050560;28;20184;-76
2020/12/30 06:33:10;;;;;;;2.95;2.60;;;3.50;99.90;;;;;;5051134;28;20169;-78
2020/12/30 06:35:37;;;;;;;3.15;2.88;;;3.50;99.90;;;;;;5051254;28;20571;-78
2020/12/30 06:38:26;;;;;;;3.75;2.55;;;3.50;99.90;;;;;;5050362;28;20517;-77
2020/12/30 06:40:55;;;;;;;4.00;2.72;;;3.50;99.90;;;;;;5050599;28;20201;-76
2020/12/30 06:43:36;;;;;;;3.85;2.80;;;3.50;99.90;;;;;;5051631;28;20173;-77
2020/12/30 06:46:02;;;;;;;3.17;2.35;;;3.50;99.90;;;;;;5051466;28;20183;-78
2020/12/30 06:48:27;;;;;;;2.88;2.63;;;3.50;99.90;;;;;;5051468;28;20196;-77
2020/12/30 06:50:53;;;;;;;5.57;2.80;;;3.50;99.90;;;;;;5051162;28;20231;-78
2020/12/30 06:53:33;;;;;;;3.67;2.37;;;3.50;99.90;;;;;;5051915;28;20180;-78
2020/12/30 06:56:00;;;;;;;3.22;2.30;;;3.40;99.90;;;;;;5050264;28;20172;-78
2020/12/30 06:58:49;;;;;;;3.25;2.80;;;3.40;99.90;;;;;;5052344;28;20165;-77
2020/12/30 07:01:21;;;;;;;3.63;2.65;;;3.40;99.90;;;;;;5050910;28;20177;-77
2020/12/30 07:03:49;;;;;;;7.88;4.15;;;3.40;99.90;;;;;;5051495;28;20193;-77
2020/12/30 07:06:23;;;;;;;5.00;3.33;;;3.40;99.90;;;;;;5051119;28;20184;-77
2020/12/30 07:08:49;;;;;;;8.27;2.72;;;3.40;99.90;;;;;;5051719;28;20255;-78
2020/12/30 07:11:36;;;;;;;3.40;2.70;;;3.40;99.90;;;;;;5050459;28;20180;-78
2020/12/30 07:14:06;;;;;;;4.05;2.65;;;3.40;99.90;;;;;;5052934;28;20180;-77
2020/12/30 07:16:36;;;;;;;4.93;3.60;;;3.40;99.90;;;;;;5054139;28;20550;-77
2020/12/30 07:19:09;;;;;;;4.97;3.20;;;3.40;99.90;;;;;;5054588;28;20187;-78
2020/12/30 07:21:54;;;;;;;3.10;2.60;;;3.30;99.90;;;;;;5054846;28;20647;-77
2020/12/30 07:24:25;;;;;;;3.60;2.55;;;3.30;99.90;;;;;;5055051;28;20591;-78
2020/12/30 07:26:59;;;;;;;7.63;2.83;;;3.30;99.90;;;;;;5020844;28;20211;-77
2020/12/30 07:29:25;;;;;;;6.13;3.55;;;3.30;99.90;;;;;;5054833;28;20619;-78
2020/12/30 07:31:58;;;;;;;3.67;3.10;;;3.20;99.90;;;;;;5054835;28;20199;-77
2020/12/30 07:34:26;;;;;;;5.85;3.75;;;3.20;99.90;;;;;;5054984;28;20272;-78
2020/12/30 07:36:53;;;;;;;5.88;3.88;;;3.30;99.90;;;;;;5054093;28;20198;-77
2020/12/30 07:39:34;;;;;;;5.45;3.83;;;3.30;99.90;;;;;;5053722;28;20299;-78
2020/12/30 07:42:01;;;;;;;5.72;3.42;;;3.30;99.90;;;;;;5053348;28;20542;-78
2020/12/30 07:44:27;;;;;;;4.53;2.85;;;3.30;99.90;;;;;;5039467;28;20192;-77
2020/12/30 07:47:08;;;;;;;4.10;3.17;;;3.30;99.90;;;;;;5039826;28;20533;-77
2020/12/30 07:49:33;;;;;;;4.93;3.15;;;3.30;99.90;;;;;;5055682;28;20200;-77
2020/12/30 07:52:01;;;;;;;3.67;3.00;;;3.30;99.90;;;;;;5055251;28;20180;-77
2020/12/30 07:54:28;;;;;;;3.30;2.45;;;3.30;99.90;;;;;;5055098;28;20188;-78
2020/12/30 07:57:13;;;;;;;7.57;3.58;;;3.30;99.90;;;;;;5054389;28;20177;-77
2020/12/30 07:59:41;;;;;;;3.95;3.20;;;3.30;99.90;;;;;;5037252;28;20176;-78
2020/12/30 08:02:08;;;;;;;7.85;2.88;;;3.30;99.90;;;;;;5054705;28;20208;-76
2020/12/30 08:04:37;;;;;;;3.95;2.97;;;3.30;99.90;;;;;;5054996;28;20192;-77
2020/12/30 08:07:05;;;;;;;3.50;2.58;;;3.30;99.90;;;;;;5055242;28;20697;-77
2020/12/30 08:09:33;;;;;;;5.60;3.00;;;3.30;99.90;;;;;;5054952;28;20207;-78
2020/12/30 08:12:00;;;;;;;4.75;2.75;;;3.30;99.90;;;;;;5053711;28;20648;-78
2020/12/30 08:14:27;;;;;;;3.20;2.67;;;3.30;99.90;;;;;;5055065;28;20219;-77
2020/12/30 08:17:05;;;;;;;4.53;2.97;;;3.30;99.90;;;;;;5055362;28;20195;-77
2020/12/30 08:19:35;;;;;;;3.95;3.17;;;3.30;99.90;;;;;;5053359;28;20172;-78
2020/12/30 08:22:03;;;;;;;5.55;3.67;;;3.30;99.90;;;;;;5055411;28;20168;-79
2020/12/30 08:24:30;;;;;;;4.10;2.83;;;3.30;99.90;;;;;;5037795;28;20204;-79
2020/12/30 08:26:56;;;;;;;10.85;3.72;;;3.40;99.90;;;;;;5056135;28;20160;-78
2020/12/30 08:29:26;;;;;;;5.55;3.10;;;3.40;99.90;;;;;;5057581;28;20192;-78
2020/12/30 08:31:57;;;;;;;5.53;3.15;;;3.40;99.90;;;;;;5055450;28;20177;-79
2020/12/30 08:34:26;;;;;;;82.75;40.88;;;3.40;99.90;;;;;;5053875;28;20711;-78
2020/12/30 08:37:02;;;;;;;18.58;12.40;;;3.60;99.90;;;;;;5054924;28;20176;-79
2020/12/30 08:39:29;;;;;;;6.07;3.00;;;3.70;99.90;;;;;;5055547;28;20244;-79
2020/12/30 08:41:58;;;;;;;6.25;3.60;;;3.60;99.90;;;;;;5055021;28;20513;-79
2020/12/30 08:44:26;;;;;;;3.97;3.10;;;3.60;99.90;;;;;;5053657;28;20246;-78
2020/12/30 08:46:56;;;;;;;10.13;3.92;;;3.60;99.90;;;;;;5055803;28;20210;-79
2020/12/30 08:49:23;;;;;;;7.20;3.15;;;3.70;99.90;;;;;;5059533;28;20271;-79
2020/12/30 08:51:50;;;;;;;6.45;5.03;;;3.70;99.90;;;;;;5039306;28;20288;-79
2020/12/30 08:54:17;;;;;;;9.65;4.82;;;3.80;99.90;;;;;;5057430;28;20208;-79
2020/12/30 08:56:44;;;;;;;9.77;4.10;;;3.90;99.90;;;;;;5055354;28;20180;-79
2020/12/30 08:59:20;;;;;;;6.07;4.00;;;3.90;99.90;;;;;;5055220;28;20228;-79
2020/12/30 09:01:46;;;;;;;4.57;3.97;;;3.90;99.90;;;;;;5053759;28;20308;-77
2020/12/30 09:04:13;;;;;;;5.27;4.53;;;4.00;99.90;;;;;;5054890;28;20196;-78
2020/12/30 09:06:39;;;;;;;4.82;3.30;;;4.00;99.90;;;;;;5055007;28;20528;-77
2020/12/30 09:09:09;;;;;;;10.77;4.22;;;4.10;99.90;;;;;;5068722;28;20177;-78
2020/12/30 09:11:36;;;;;;;6.35;4.05;;;4.00;99.90;;;;;;5070273;28;20518;-77
2020/12/30 09:14:18;;;;;;;4.70;3.45;;;4.10;99.90;;;;;;5054851;28;20201;-81
2020/12/30 09:17:00;;;;;;;4.20;3.58;;;4.20;99.90;;;;;;5063044;28;20168;-81
2020/12/30 09:19:26;;;;;;;16.45;4.88;;;4.50;99.90;;;;;;5056654;28;20622;-81
2020/12/30 09:22:04;;;;;;;5.10;4.00;;;4.60;99.90;;;;;;5055935;28;20204;-82
2020/12/30 09:24:40;;;;;;;7.45;3.55;;;5.00;99.90;;;;;;5058612;28;20225;-82
2020/12/30 09:27:20;;;;;;;84.78;38.88;;;5.20;99.90;;;;;;5042019;28;20183;-83
2020/12/30 09:30:10;;;;;;;35.53;19.63;;;5.30;99.90;;;;;;5045460;28;20208;-83
2020/12/30 09:32:36;;;;;;;9.93;6.72;;;5.20;99.90;;;;;;5069900;28;20254;-82
2020/12/30 09:35:23;;;;;;;8.00;4.63;;;5.00;99.90;;;;;;5060208;28;20196;-82
2020/12/30 09:37:56;;;;;;;6.43;4.03;;;4.80;99.90;;;;;;5057632;28;20205;-81
2020/12/30 09:40:23;;;;;;;6.05;4.38;;;4.80;99.90;;;;;;5059728;28;20175;-83
2020/12/30 09:42:49;;;;;;;4.35;3.40;;;4.80;99.90;;;;;;5057659;28;20172;-83
2020/12/30 09:45:16;;;;;;;3.95;3.47;;;4.80;99.90;;;;;;5059769;28;20193;-83
2020/12/30 09:47:42;;;;;;;6.95;4.13;;;4.70;99.90;;;;;;5042085;28;20254;-84
2020/12/30 09:50:11;;;;;;;4.50;3.60;;;4.80;99.90;;;;;;5060037;28;20207;-82
2020/12/30 09:52:39;;;;;;;4.20;3.80;;;4.80;99.90;;;;;;5057578;28;20183;-81
2020/12/30 09:55:06;;;;;;;5.70;3.97;;;4.80;99.90;;;;;;5054584;28;20223;-79
2020/12/30 09:57:33;;;;;;;6.25;3.08;;;4.90;99.90;;;;;;5054518;28;20190;-80
2020/12/30 09:59:59;;;;;;;3.40;2.90;;;4.80;99.90;;;;;;5056607;28;20176;-78
2020/12/30 10:02:26;;;;;;;10.45;4.35;;;4.80;99.90;;;;;;5055280;28;20184;-80
2020/12/30 10:04:54;;;;;;;9.00;4.00;;;4.80;99.90;;;;;;5055650;28;20201;-81
2020/12/30 10:07:20;;;;;;;6.20;3.38;;;4.80;99.90;;;;;;5055523;28;20184;-81
2020/12/30 10:09:46;;;;;;;9.37;4.93;;;4.90;99.90;;;;;;5053857;28;20201;-81
2020/12/30 10:12:11;;;;;;;5.30;3.10;;;4.90;99.90;;;;;;5037127;28;20682;-80
2020/12/30 10:14:37;;;;;;;7.83;3.23;;;4.90;99.90;;;;;;5054758;28;20498;-81
2020/12/30 10:17:03;;;;;;;4.53;3.43;;;4.90;99.90;;;;;;5054327;28;20168;-80
2020/12/30 10:19:28;;;;;;;4.80;3.33;;;5.00;99.90;;;;;;5037916;28;20276;-80
2020/12/30 10:21:54;;;;;;;5.57;3.47;;;5.10;99.90;;;;;;5040211;28;20208;-80
2020/12/30 10:24:20;;;;;;;7.33;4.03;;;5.10;99.90;;;;;;5047300;28;20196;-81
2020/12/30 10:26:46;;;;;;;5.63;3.77;;;5.20;99.90;;;;;;5072639;28;20251;-81
2020/12/30 10:29:12;;;;;;;4.13;3.22;;;5.30;99.90;;;;;;5042713;28;20449;-81
2020/12/30 10:31:37;;;;;;;3.50;2.93;;;5.30;99.90;;;;;;5075000;28;20176;-81
2020/12/30 10:34:03;;;;;;;5.30;4.20;;;5.30;99.90;;;;;;5055728;28;20267;-81
2020/12/30 10:36:31;;;;;;;4.87;3.50;;;5.40;99.90;;;;;;5060839;28;20180;-81
2020/12/30 10:38:57;;;;;;;5.88;3.60;;;5.30;99.90;;;;;;5065728;28;20269;-81
2020/12/30 10:41:23;;;;;;;5.15;3.95;;;5.30;99.90;;;;;;5040920;28;20177;-80
2020/12/30 10:43:49;;;;;;;4.27;3.50;;;5.30;99.90;;;;;;5060175;28;20192;-81
2020/12/30 10:46:17;;;;;;;4.75;3.13;;;5.30;99.90;;;;;;5059298;28;20222;-81
2020/12/30 10:48:47;;;;;;;5.57;3.47;;;5.40;99.90;;;;;;5064531;28;20201;-81
2020/12/30 10:51:17;;;;;;;3.60;3.30;;;5.40;99.90;;;;;;5071227;28;20244;-81
2020/12/30 10:53:44;;;;;;;4.45;4.03;;;5.30;99.90;;;;;;5037872;28;20196;-81
2020/12/30 10:56:11;;;;;;;3.50;3.20;;;5.30;99.90;;;;;;5070546;28;20270;-82
2020/12/30 10:58:37;;;;;;;6.93;4.07;;;5.30;99.90;;;;;;5070276;28;20180;-83
2020/12/30 11:01:21;;;;;;;7.32;3.97;;;5.30;99.90;;;;;;5071533;28;20180;-82
2020/12/30 11:03:47;;;;;;;7.35;3.53;;;5.30;99.90;;;;;;5061460;28;20188;-83
2020/12/30 11:06:12;;;;;;;117.30;50.90;;;5.30;99.90;;;;;;5041823;28;20290;-82
2020/12/30 11:08:38;;;;;;;24.43;12.80;;;5.60;99.90;;;;;;5046880;28;20208;-82
2020/12/30 11:11:05;;;;;;;7.60;5.00;;;5.50;99.90;;;;;;5039617;28;20648;-82
2020/12/30 11:13:34;;;;;;;6.53;5.20;;;5.60;99.90;;;;;;5025008;28;20196;-82
2020/12/30 11:16:00;;;;;;;6.65;4.38;;;5.60;99.90;;;;;;5024374;28;20177;-83
2020/12/30 11:18:25;;;;;;;6.97;4.43;;;5.60;99.90;;;;;;5041294;28;20185;-81
2020/12/30 11:20:51;;;;;;;6.27;3.83;;;5.60;99.90;;;;;;5028283;28;20184;-80
2020/12/30 11:23:17;;;;;;;4.13;3.70;;;5.60;99.90;;;;;;5032731;28;20173;-82
2020/12/30 11:25:46;;;;;;;6.13;3.60;;;5.70;99.90;;;;;;5043946;28;20196;-79
2020/12/30 11:28:12;;;;;;;6.43;4.28;;;5.70;99.90;;;;;;5040390;28;20197;-82
2020/12/30 11:30:38;;;;;;;3.88;3.40;;;5.70;99.90;;;;;;5039274;28;20748;-79
2020/12/30 11:33:04;;;;;;;11.47;3.67;;;5.70;99.90;;;;;;5051568;28;20169;-80
2020/12/30 11:35:33;;;;;;;5.57;3.00;;;5.80;99.90;;;;;;5044698;28;20438;-81
2020/12/30 11:37:59;;;;;;;6.75;3.63;;;5.80;99.90;;;;;;5043777;28;20407;-80
2020/12/30 11:40:26;;;;;;;4.93;3.60;;;5.90;99.90;;;;;;5044706;28;20196;-80
2020/12/30 11:42:53;;;;;;;9.65;3.83;;;5.90;99.90;;;;;;5025578;28;20182;-80
2020/12/30 11:45:18;;;;;;;4.70;3.88;;;6.00;99.90;;;;;;5045083;28;20729;-82
2020/12/30 11:47:44;;;;;;;6.10;4.33;;;6.00;99.90;;;;;;5054022;28;20182;-81
2020/12/30 11:50:10;;;;;;;8.13;3.90;;;6.10;99.90;;;;;;5046098;28;20742;-82
2020/12/30 11:52:36;;;;;;;4.63;4.10;;;6.10;99.90;;;;;;5034386;28;20174;-82
2020/12/30 11:55:01;;;;;;;5.57;4.43;;;6.10;99.90;;;;;;5036865;28;20269;-81
2020/12/30 11:57:30;;;;;;;5.20;4.53;;;6.00;99.90;;;;;;5054519;28;20459;-82
2020/12/30 11:59:59;;;;;;;8.52;4.82;;;6.00;99.90;;;;;;5047241;28;20176;-82
2020/12/30 12:02:24;;;;;;;5.53;4.50;;;5.90;99.90;;;;;;5026000;28;20177;-82
2020/12/30 12:04:50;;;;;;;11.90;4.57;;;6.00;99.90;;;;;;5030476;28;20200;-80
2020/12/30 12:07:15;;;;;;;4.53;3.87;;;6.00;99.90;;;;;;5047754;28;20269;-81
2020/12/30 12:09:45;;;;;;;6.40;4.30;;;6.00;99.90;;;;;;5011089;28;20248;-81
2020/12/30 12:12:10;;;;;;;4.53;3.85;;;6.00;99.90;;;;;;5013242;28;20586;-81
2020/12/30 12:14:39;;;;;;;4.60;3.73;;;6.00;99.90;;;;;;5054416;28;20194;-82
2020/12/30 12:17:06;;;;;;;5.57;4.13;;;5.90;99.90;;;;;;5045259;28;20178;-81
2020/12/30 12:19:34;;;;;;;4.50;4.03;;;6.00;99.90;;;;;;5010052;28;20200;-81
2020/12/30 12:22:00;;;;;;;5.28;4.40;;;6.00;99.90;;;;;;5025682;28;20518;-81
2020/12/30 12:24:25;;;;;;;7.43;4.07;;;6.00;99.90;;;;;;5042085;28;20248;-83
2020/12/30 12:26:51;;;;;;;3.90;3.50;;;5.90;99.90;;;;;;5043209;28;20203;-81
2020/12/30 12:29:23;;;;;;;5.03;4.00;;;6.00;99.90;;;;;;5046636;28;20209;-80
2020/12/30 12:32:11;;;;;;;5.63;3.58;;;6.00;99.90;;;;;;5046017;28;20177;-82
2020/12/30 12:34:39;;;;;;;13.10;5.10;;;6.00;99.90;;;;;;5064532;28;20390;-82
2020/12/30 12:37:06;;;;;;;5.30;3.63;;;6.00;99.90;;;;;;5065956;28;20187;-81
2020/12/30 12:39:36;;;;;;;6.97;4.65;;;6.10;99.90;;;;;;5063550;28;20252;-84
2020/12/30 12:42:03;;;;;;;8.07;4.53;;;6.10;99.90;;;;;;5066258;28;20184;-81
2020/12/30 12:44:30;;;;;;;5.53;4.43;;;6.10;99.90;;;;;;5066899;28;20283;-81
2020/12/30 12:46:56;;;;;;;8.73;4.70;;;6.10;99.90;;;;;;5067139;28;20172;-81
2020/12/30 12:49:22;;;;;;;12.33;4.73;;;5.90;99.90;;;;;;5067302;28;20209;-80
2020/12/30 12:51:49;;;;;;;8.73;4.88;;;6.00;99.90;;;;;;5063825;28;20414;-80
2020/12/30 12:54:15;;;;;;;6.35;3.75;;;6.10;99.90;;;;;;5065335;28;20203;-82
2020/12/30 12:56:41;;;;;;;6.67;4.90;;;6.00;99.90;;;;;;5049278;28;20271;-83
2020/12/30 12:59:07;;;;;;;6.10;3.70;;;6.00;99.90;;;;;;5060283;28;20443;-81
2020/12/30 13:01:33;;;;;;;6.22;4.32;;;6.10;99.90;;;;;;5062843;28;20306;-82